Time;durP1;ratioP1;P1;durP2;ratioP2;P2;SDS_P1;SDS_P2;PMS_P1;PMS_P2;Temp;Humidity;BMP_temperature;BMP_pressure;BME280_temperature;BME280_humidity;BME280_pressure;Samples;Min_cycle;Max_cycle;Signal;HPM_P1;HPM_P2
2023/10/31 00:00:23;;;;;;;1.10;0.90;;;17.50;70.80;;;;;;5055998;28;20351;-49
2023/10/31 00:02:49;;;;;;;2.83;1.07;;;17.50;70.70;;;;;;5056735;28;20787;-49
2023/10/31 00:05:15;;;;;;;2.10;1.10;;;17.40;70.20;;;;;;5056456;28;20180;-47
2023/10/31 00:07:40;;;;;;;1.63;1.00;;;17.40;71.10;;;;;;5056403;28;20219;-48
2023/10/31 00:10:06;;;;;;;1.13;1.03;;;17.50;70.00;;;;;;5053123;28;20533;-50
2023/10/31 00:12:32;;;;;;;1.00;0.90;;;17.50;70.10;;;;;;5056136;28;20571;-49
2023/10/31 00:14:57;;;;;;;1.73;0.80;;;17.30;70.30;;;;;;5055287;28;20438;-48
2023/10/31 00:17:23;;;;;;;0.90;0.90;;;17.40;70.40;;;;;;5055538;28;20200;-49
2023/10/31 00:19:48;;;;;;;1.20;0.70;;;17.50;70.20;;;;;;5057400;28;20247;-49
2023/10/31 00:22:14;;;;;;;0.80;0.80;;;17.40;69.90;;;;;;5056503;28;20176;-50
2023/10/31 00:24:40;;;;;;;1.53;1.10;;;17.30;70.30;;;;;;5059663;28;20312;-47
2023/10/31 00:27:05;;;;;;;0.80;0.67;;;17.40;70.10;;;;;;5054302;28;20192;-48
2023/10/31 00:29:31;;;;;;;0.90;0.90;;;17.40;70.80;;;;;;5058811;28;20192;-49
2023/10/31 00:31:56;;;;;;;0.73;0.73;;;17.30;70.40;;;;;;5053268;28;20240;-51
2023/10/31 00:34:22;;;;;;;0.73;0.73;;;17.30;71.20;;;;;;5055822;28;20191;-47
2023/10/31 00:36:47;;;;;;;0.90;0.70;;;17.40;70.90;;;;;;5058799;28;20188;-49
2023/10/31 00:39:13;;;;;;;0.80;0.80;;;17.40;70.80;;;;;;5060338;28;20200;-50
2023/10/31 00:41:44;;;;;;;0.70;0.70;;;17.50;70.80;;;;;;5057762;28;20189;-49
2023/10/31 00:44:10;;;;;;;0.67;0.67;;;17.20;71.40;;;;;;5058988;28;20782;-46
2023/10/31 00:46:35;;;;;;;0.60;0.60;;;17.10;72.20;;;;;;5066689;28;20520;-47
2023/10/31 00:49:01;;;;;;;1.30;0.90;;;17.10;72.50;;;;;;5072288;28;20353;-49
2023/10/31 00:51:26;;;;;;;3.00;0.60;;;17.20;72.70;;;;;;5068102;28;20183;-49
2023/10/31 00:53:52;;;;;;;1.00;0.70;;;17.20;72.50;;;;;;5066752;28;20188;-47
2023/10/31 00:56:17;;;;;;;0.67;0.67;;;17.10;73.00;;;;;;5058990;28;20180;-48
2023/10/31 00:58:43;;;;;;;0.80;0.80;;;17.10;72.90;;;;;;5062449;28;20196;-49
2023/10/31 01:01:08;;;;;;;0.70;0.70;;;17.20;73.00;;;;;;5056719;28;20271;-48
2023/10/31 01:03:34;;;;;;;0.60;0.60;;;17.20;72.70;;;;;;5064276;28;20793;-45
2023/10/31 01:05:59;;;;;;;0.60;0.60;;;17.30;72.30;;;;;;5067404;28;20671;-49
2023/10/31 01:08:25;;;;;;;0.60;0.60;;;17.40;71.90;;;;;;5070103;28;20215;-47
2023/10/31 01:10:51;;;;;;;0.53;0.53;;;17.40;71.70;;;;;;5064662;28;20187;-50
2023/10/31 01:13:16;;;;;;;0.50;0.50;;;17.50;72.20;;;;;;5068291;28;20184;-47
2023/10/31 01:15:42;;;;;;;0.60;0.60;;;17.50;71.40;;;;;;5069267;28;20184;-49
2023/10/31 01:18:07;;;;;;;0.70;0.60;;;17.50;71.40;;;;;;5068527;28;20180;-49
2023/10/31 01:20:33;;;;;;;1.27;0.60;;;17.60;71.50;;;;;;5068224;28;20835;-47
2023/10/31 01:22:58;;;;;;;0.70;0.70;;;17.50;71.70;;;;;;5068487;28;20208;-48
2023/10/31 01:25:24;;;;;;;0.80;0.80;;;17.60;71.70;;;;;;5068660;28;20194;-53
2023/10/31 01:27:49;;;;;;;0.83;0.70;;;17.60;71.40;;;;;;5067343;28;20172;-47
2023/10/31 01:30:15;;;;;;;0.67;0.63;;;17.70;71.40;;;;;;5069081;28;20183;-48
2023/10/31 01:32:41;;;;;;;1.30;0.87;;;17.60;71.10;;;;;;5068660;28;20670;-50
2023/10/31 01:35:07;;;;;;;0.80;0.70;;;17.60;70.70;;;;;;5065701;28;20187;-49
2023/10/31 01:37:32;;;;;;;1.53;0.80;;;17.50;70.70;;;;;;5058133;28;20323;-51
2023/10/31 01:39:58;;;;;;;0.70;0.60;;;17.40;70.60;;;;;;5055153;28;20350;-51
2023/10/31 01:42:24;;;;;;;1.37;0.50;;;17.20;69.90;;;;;;5060182;28;20285;-49
2023/10/31 01:44:49;;;;;;;1.70;0.83;;;17.00;69.40;;;;;;5054382;28;20442;-49
2023/10/31 01:47:15;;;;;;;1.63;0.80;;;16.90;69.10;;;;;;5055513;28;20195;-47
2023/10/31 01:49:41;;;;;;;1.50;0.80;;;16.90;68.90;;;;;;5061582;28;20325;-48
2023/10/31 01:52:07;;;;;;;0.70;0.70;;;16.90;68.50;;;;;;5062140;28;20331;-50
2023/10/31 01:54:35;;;;;;;0.77;0.77;;;16.80;67.90;;;;;;5056591;28;20538;-51
2023/10/31 01:57:03;;;;;;;1.70;0.70;;;16.90;67.70;;;;;;5059285;28;20928;-48
2023/10/31 01:59:29;;;;;;;0.90;0.90;;;16.90;67.10;;;;;;5059347;28;20812;-47
2023/10/31 02:01:57;;;;;;;0.70;0.70;;;16.90;66.80;;;;;;5057920;28;20457;-48
2023/10/31 02:04:24;;;;;;;1.83;0.70;;;17.00;66.30;;;;;;5058792;28;20215;-47
2023/10/31 02:06:49;;;;;;;3.20;1.07;;;17.10;66.40;;;;;;5061206;28;20488;-48
2023/10/31 02:09:15;;;;;;;0.83;0.80;;;17.20;66.10;;;;;;5054605;28;20988;-47
2023/10/31 02:11:41;;;;;;;2.60;0.87;;;17.20;65.50;;;;;;5054286;28;20637;-48
2023/10/31 02:14:06;;;;;;;1.23;0.80;;;17.10;66.10;;;;;;5059953;28;20246;-51
2023/10/31 02:16:32;;;;;;;2.30;1.00;;;17.00;66.00;;;;;;5057678;28;20219;-48
2023/10/31 02:18:57;;;;;;;0.80;0.70;;;17.00;66.00;;;;;;5057372;28;20279;-52
2023/10/31 02:21:25;;;;;;;0.53;0.53;;;17.10;66.00;;;;;;5059717;28;20308;-50
2023/10/31 02:23:59;;;;;;;1.53;0.80;;;17.20;66.50;;;;;;5063733;28;20302;-51
2023/10/31 02:26:32;;;;;;;0.70;0.70;;;17.10;65.30;;;;;;5068725;28;20483;-49
2023/10/31 02:28:58;;;;;;;6.87;0.97;;;17.10;65.30;;;;;;5060751;28;20490;-51
2023/10/31 02:31:24;;;;;;;0.60;0.60;;;17.20;65.00;;;;;;5066798;28;20463;-51
2023/10/31 02:33:49;;;;;;;0.90;0.90;;;17.20;64.70;;;;;;5067339;28;20521;-45
2023/10/31 02:36:15;;;;;;;3.93;1.03;;;17.30;64.40;;;;;;5068168;28;20458;-49
2023/10/31 02:38:40;;;;;;;0.70;0.70;;;17.30;64.10;;;;;;5065324;28;20201;-48
2023/10/31 02:41:06;;;;;;;0.77;0.73;;;17.20;64.00;;;;;;5058878;28;20655;-50
2023/10/31 02:43:32;;;;;;;0.70;0.70;;;17.00;62.80;;;;;;5067041;28;20211;-47
2023/10/31 02:45:57;;;;;;;1.10;0.80;;;16.80;63.20;;;;;;5066860;28;20260;-51
2023/10/31 02:48:24;;;;;;;1.23;0.80;;;16.80;63.60;;;;;;5067417;28;20265;-49
2023/10/31 02:50:50;;;;;;;0.70;0.70;;;16.60;64.30;;;;;;5060269;28;20180;-47
2023/10/31 02:53:17;;;;;;;0.97;0.90;;;16.60;64.10;;;;;;5057988;28;20529;-47
2023/10/31 02:55:43;;;;;;;1.53;1.00;;;16.60;64.00;;;;;;5059324;28;20473;-53
2023/10/31 02:58:08;;;;;;;0.70;0.70;;;16.70;63.70;;;;;;5057496;28;20446;-48
2023/10/31 03:00:34;;;;;;;0.93;0.90;;;16.70;63.60;;;;;;5053103;28;20250;-46
2023/10/31 03:03:00;;;;;;;0.70;0.70;;;16.60;63.20;;;;;;5058869;28;20250;-49
2023/10/31 03:05:25;;;;;;;0.80;0.80;;;16.50;63.50;;;;;;5061278;28;20187;-46
2023/10/31 03:07:52;;;;;;;0.87;0.70;;;16.60;63.80;;;;;;5066476;28;20184;-49
2023/10/31 03:10:19;;;;;;;3.07;1.00;;;16.60;63.90;;;;;;5065855;28;20670;-48
2023/10/31 03:12:44;;;;;;;6.87;0.97;;;16.70;63.70;;;;;;5066959;28;20890;-48
2023/10/31 03:15:10;;;;;;;1.03;0.77;;;16.70;63.40;;;;;;5063958;28;20521;-49
2023/10/31 03:17:36;;;;;;;0.60;0.60;;;16.70;63.20;;;;;;5065880;28;20260;-48
2023/10/31 03:20:02;;;;;;;0.80;0.80;;;16.70;63.20;;;;;;5066274;28;20199;-48
2023/10/31 03:22:28;;;;;;;0.87;0.83;;;16.80;63.20;;;;;;5066263;28;20188;-50
2023/10/31 03:24:53;;;;;;;0.90;0.80;;;16.80;63.20;;;;;;5067160;28;20804;-48
2023/10/31 03:27:19;;;;;;;0.93;0.87;;;16.80;63.20;;;;;;5063848;28;20200;-49
2023/10/31 03:29:45;;;;;;;2.27;1.20;;;16.70;62.90;;;;;;5065896;28;20207;-49
2023/10/31 03:32:11;;;;;;;1.57;0.90;;;16.70;63.10;;;;;;5066221;28;20206;-47
2023/10/31 03:34:37;;;;;;;1.37;0.90;;;16.70;63.30;;;;;;5066408;28;21020;-51
2023/10/31 03:37:03;;;;;;;2.10;1.10;;;16.70;63.30;;;;;;5064682;28;20505;-48
2023/10/31 03:39:28;;;;;;;0.97;0.87;;;16.60;63.40;;;;;;5064620;28;21166;-49
2023/10/31 03:41:54;;;;;;;1.70;0.70;;;16.60;63.50;;;;;;5065800;28;20246;-49
2023/10/31 03:44:20;;;;;;;1.00;0.90;;;16.60;63.60;;;;;;5054942;28;20212;-49
2023/10/31 03:46:45;;;;;;;2.33;0.80;;;16.50;63.50;;;;;;5057211;28;20749;-51
2023/10/31 03:49:11;;;;;;;1.20;0.73;;;16.50;63.70;;;;;;5057130;28;20228;-47
2023/10/31 03:51:36;;;;;;;1.37;1.00;;;16.60;63.50;;;;;;5052896;28;20181;-47
2023/10/31 03:54:02;;;;;;;3.00;1.00;;;16.70;63.30;;;;;;5056783;28;21208;-49
2023/10/31 03:56:27;;;;;;;1.47;1.00;;;16.70;63.40;;;;;;5059422;28;20210;-47
2023/10/31 03:58:53;;;;;;;2.20;1.00;;;16.70;63.30;;;;;;5054597;28;20257;-47
2023/10/31 04:01:18;;;;;;;1.47;0.90;;;16.70;63.10;;;;;;5064573;28;20188;-48
2023/10/31 04:03:44;;;;;;;1.53;0.97;;;16.70;62.90;;;;;;5055626;28;20220;-50
2023/10/31 04:06:09;;;;;;;1.73;1.10;;;16.70;62.80;;;;;;5056045;28;20180;-49
2023/10/31 04:08:35;;;;;;;1.10;0.80;;;16.70;62.80;;;;;;5063464;28;20303;-49
2023/10/31 04:11:01;;;;;;;1.10;0.80;;;16.70;62.90;;;;;;5057095;28;20670;-48
2023/10/31 04:13:26;;;;;;;2.13;1.03;;;16.70;63.30;;;;;;5068101;28;20180;-47
2023/10/31 04:15:52;;;;;;;2.20;1.10;;;16.70;63.40;;;;;;5060642;28;20187;-49
2023/10/31 04:18:17;;;;;;;1.00;0.90;;;16.70;63.60;;;;;;5057103;28;20749;-47
2023/10/31 04:20:43;;;;;;;1.50;1.00;;;16.70;63.80;;;;;;5060622;28;20180;-47
2023/10/31 04:23:09;;;;;;;2.20;1.17;;;16.70;63.90;;;;;;5066341;28;20299;-47
2023/10/31 04:25:34;;;;;;;2.10;1.10;;;16.70;63.90;;;;;;5059094;28;20828;-47
2023/10/31 04:28:00;;;;;;;1.00;0.90;;;16.70;64.10;;;;;;5058513;28;20445;-49
2023/10/31 04:30:27;;;;;;;1.67;0.73;;;16.70;64.20;;;;;;5058233;28;20196;-48
2023/10/31 04:32:53;;;;;;;3.00;1.00;;;16.70;64.10;;;;;;5058080;28;20283;-49
2023/10/31 04:35:20;;;;;;;1.60;0.77;;;16.60;63.90;;;;;;5059216;28;20532;-50
2023/10/31 04:37:45;;;;;;;5.30;1.10;;;16.60;63.80;;;;;;5060202;28;20261;-46
2023/10/31 04:40:11;;;;;;;4.10;1.00;;;16.60;63.80;;;;;;5062015;28;20465;-47
2023/10/31 04:42:40;;;;;;;1.30;0.87;;;16.50;63.40;;;;;;5070719;28;20689;-49
2023/10/31 04:45:06;;;;;;;2.23;0.83;;;16.50;63.30;;;;;;5069039;28;20430;-48
2023/10/31 04:47:32;;;;;;;1.87;1.77;;;16.60;63.40;;;;;;5065577;28;20438;-50
2023/10/31 04:49:57;;;;;;;3.73;0.93;;;16.50;63.30;;;;;;5059294;28;20465;-49
2023/10/31 04:52:25;;;;;;;0.80;0.80;;;16.40;62.90;;;;;;5057051;28;20188;-50
2023/10/31 04:54:51;;;;;;;1.20;1.10;;;16.50;63.10;;;;;;5061643;28;20365;-49
2023/10/31 04:57:17;;;;;;;1.47;0.97;;;16.40;63.20;;;;;;5056826;28;21190;-48
2023/10/31 04:59:42;;;;;;;1.63;1.03;;;16.40;63.40;;;;;;5056828;28;20212;-50
2023/10/31 05:02:08;;;;;;;1.63;0.97;;;16.40;63.60;;;;;;5057015;28;20223;-49
2023/10/31 05:04:33;;;;;;;3.73;1.07;;;16.40;63.70;;;;;;5057277;28;20226;-47
2023/10/31 05:06:59;;;;;;;0.83;0.80;;;16.40;63.70;;;;;;5072199;28;20191;-49
2023/10/31 05:09:26;;;;;;;1.87;1.07;;;16.30;63.80;;;;;;5068715;28;20218;-49
2023/10/31 05:11:52;;;;;;;0.90;0.80;;;16.40;63.90;;;;;;5063710;28;20636;-46
2023/10/31 05:14:17;;;;;;;0.80;0.80;;;16.30;63.40;;;;;;5069399;28;20438;-48
2023/10/31 05:16:43;;;;;;;3.70;1.10;;;16.30;63.40;;;;;;5068775;28;20191;-52
2023/10/31 05:19:09;;;;;;;1.10;1.00;;;16.30;63.30;;;;;;5069179;28;20219;-49
2023/10/31 05:21:35;;;;;;;2.20;1.20;;;16.40;62.90;;;;;;5067371;28;20187;-47
2023/10/31 05:24:01;;;;;;;1.33;1.00;;;16.40;62.70;;;;;;5069856;28;20498;-48
2023/10/31 05:26:28;;;;;;;2.20;1.10;;;16.50;62.70;;;;;;5069393;28;20937;-48
2023/10/31 05:28:54;;;;;;;3.83;2.43;;;16.50;62.70;;;;;;5068092;28;20975;-49
2023/10/31 05:31:19;;;;;;;0.80;0.80;;;16.50;62.80;;;;;;5064274;28;20488;-49
2023/10/31 05:33:45;;;;;;;0.87;0.87;;;16.50;62.90;;;;;;5068221;28;20184;-50
2023/10/31 05:36:23;;;;;;;1.93;0.90;;;16.50;62.80;;;;;;5068698;28;20172;-52
2023/10/31 05:38:49;;;;;;;1.43;0.83;;;16.50;63.00;;;;;;5066323;28;20741;-52
2023/10/31 05:41:15;;;;;;;1.03;1.00;;;16.40;63.00;;;;;;5069045;28;20484;-51
2023/10/31 05:43:41;;;;;;;2.70;1.10;;;16.40;63.10;;;;;;5060916;28;20222;-49
2023/10/31 05:46:10;;;;;;;4.43;1.40;;;16.30;63.20;;;;;;5056949;28;20438;-49
2023/10/31 05:48:41;;;;;;;1.30;1.20;;;16.20;63.40;;;;;;5059142;28;20640;-51
2023/10/31 05:51:16;;;;;;;1.00;0.90;;;16.10;63.20;;;;;;5059501;28;20455;-48
2023/10/31 05:53:44;;;;;;;0.97;0.87;;;16.00;63.30;;;;;;5058007;28;20463;-49
2023/10/31 05:56:11;;;;;;;1.50;0.70;;;16.00;63.40;;;;;;5058951;28;20461;-48
2023/10/31 05:58:37;;;;;;;2.87;1.13;;;16.10;64.10;;;;;;5054215;28;20558;-49
2023/10/31 06:01:03;;;;;;;2.40;1.10;;;16.10;63.20;;;;;;5057893;28;20575;-49
2023/10/31 06:03:29;;;;;;;2.87;1.43;;;16.10;63.10;;;;;;5058003;28;20841;-50
2023/10/31 06:05:55;;;;;;;2.47;1.03;;;16.10;63.20;;;;;;5058070;28;20533;-52
2023/10/31 06:08:20;;;;;;;1.03;0.90;;;16.10;63.40;;;;;;5057453;28;20246;-49
2023/10/31 06:10:46;;;;;;;2.23;0.87;;;16.10;63.30;;;;;;5055270;28;20188;-54
2023/10/31 06:13:11;;;;;;;1.73;0.90;;;16.00;63.00;;;;;;5058931;28;20196;-52
2023/10/31 06:15:37;;;;;;;2.70;1.30;;;15.80;62.30;;;;;;5059694;28;20184;-52
2023/10/31 06:18:03;;;;;;;1.53;1.00;;;15.80;62.60;;;;;;5059387;28;20674;-52
2023/10/31 06:20:29;;;;;;;0.83;0.80;;;15.80;62.50;;;;;;5059045;28;20442;-50
2023/10/31 06:22:54;;;;;;;3.60;1.00;;;15.90;62.60;;;;;;5058780;28;20183;-49
2023/10/31 06:25:20;;;;;;;1.03;1.00;;;15.80;62.70;;;;;;5070620;28;20195;-53
2023/10/31 06:27:45;;;;;;;1.13;1.00;;;15.70;62.10;;;;;;5068176;28;20275;-51
2023/10/31 06:30:11;;;;;;;1.00;0.80;;;15.70;61.90;;;;;;5068577;28;20203;-50
2023/10/31 06:32:39;;;;;;;1.20;0.80;;;15.70;62.30;;;;;;5066066;28;20187;-52
2023/10/31 06:35:05;;;;;;;1.37;0.70;;;15.70;61.40;;;;;;5063078;28;20531;-50
2023/10/31 06:37:31;;;;;;;0.90;0.90;;;15.80;60.80;;;;;;5063607;28;20484;-50
2023/10/31 06:39:57;;;;;;;2.17;0.80;;;15.90;61.00;;;;;;5061305;28;20553;-50
2023/10/31 06:42:22;;;;;;;3.30;1.30;;;15.80;60.60;;;;;;5063056;28;20188;-49
2023/10/31 06:44:48;;;;;;;1.33;0.90;;;15.70;60.90;;;;;;5064883;28;20216;-50
2023/10/31 06:47:14;;;;;;;0.73;0.70;;;15.80;60.70;;;;;;5064570;28;20180;-51
2023/10/31 06:49:40;;;;;;;0.70;0.70;;;15.90;60.40;;;;;;5065216;28;20219;-49
2023/10/31 06:52:05;;;;;;;0.73;0.73;;;15.80;60.30;;;;;;5068231;28;20860;-50
2023/10/31 06:54:31;;;;;;;3.47;1.03;;;15.90;60.70;;;;;;5066587;28;20599;-49
2023/10/31 06:56:57;;;;;;;1.03;0.83;;;15.90;60.60;;;;;;5067324;28;20811;-48
2023/10/31 06:59:22;;;;;;;1.00;0.90;;;15.60;60.50;;;;;;5065093;28;20200;-50
2023/10/31 07:01:48;;;;;;;2.20;0.80;;;15.50;60.60;;;;;;5065274;28;20254;-49
2023/10/31 07:04:13;;;;;;;1.10;0.70;;;15.40;61.60;;;;;;5061614;28;20222;-49
2023/10/31 07:06:39;;;;;;;2.20;0.77;;;15.30;62.50;;;;;;5065949;28;20187;-50
2023/10/31 07:09:05;;;;;;;1.23;0.93;;;15.30;62.60;;;;;;5068424;28;20252;-47
2023/10/31 07:11:33;;;;;;;0.83;0.80;;;15.40;62.90;;;;;;5068291;28;20764;-47
2023/10/31 07:14:01;;;;;;;1.30;0.80;;;15.40;62.90;;;;;;5067135;28;20438;-47
2023/10/31 07:16:27;;;;;;;1.87;1.00;;;15.50;63.00;;;;;;5065591;28;20442;-50
2023/10/31 07:18:52;;;;;;;2.60;0.80;;;15.50;63.10;;;;;;5065325;28;20462;-53
2023/10/31 07:21:18;;;;;;;1.27;0.80;;;15.60;62.90;;;;;;5058612;28;20287;-50
2023/10/31 07:23:44;;;;;;;1.03;0.93;;;15.70;62.40;;;;;;5064189;28;20231;-50
2023/10/31 07:26:10;;;;;;;1.20;1.10;;;15.60;62.20;;;;;;5057390;28;20238;-49
2023/10/31 07:28:35;;;;;;;1.03;0.90;;;15.70;62.20;;;;;;5064019;28;20959;-48
2023/10/31 07:31:01;;;;;;;2.37;0.83;;;15.80;62.20;;;;;;5061970;28;20439;-48
2023/10/31 07:33:27;;;;;;;1.20;1.10;;;15.60;62.10;;;;;;5057209;28;20230;-49
2023/10/31 07:35:52;;;;;;;1.10;0.90;;;15.60;62.10;;;;;;5061895;28;20207;-50
2023/10/31 07:38:18;;;;;;;1.50;1.10;;;15.50;62.40;;;;;;5064223;28;20204;-49
2023/10/31 07:40:43;;;;;;;1.20;0.93;;;15.50;62.60;;;;;;5062855;28;20179;-51
2023/10/31 07:43:09;;;;;;;1.67;0.80;;;15.60;62.20;;;;;;5059852;28;20214;-47
2023/10/31 07:45:35;;;;;;;1.97;1.07;;;15.30;61.90;;;;;;5063899;28;20634;-51
2023/10/31 07:48:01;;;;;;;1.13;0.90;;;15.20;63.70;;;;;;5064291;28;20188;-49
2023/10/31 07:50:27;;;;;;;1.97;1.00;;;15.00;64.00;;;;;;5071925;28;20426;-50
2023/10/31 07:52:53;;;;;;;1.67;1.17;;;15.10;63.10;;;;;;5064266;28;20490;-49
2023/10/31 07:55:18;;;;;;;1.60;1.20;;;14.90;64.20;;;;;;5066785;28;20227;-49
2023/10/31 07:57:44;;;;;;;1.70;0.90;;;14.80;64.30;;;;;;5070341;28;20184;-52
2023/10/31 08:00:11;;;;;;;1.50;0.80;;;14.80;64.60;;;;;;5069890;28;20228;-49
2023/10/31 08:02:37;;;;;;;1.20;1.00;;;15.10;64.00;;;;;;5069361;28;20188;-49
2023/10/31 08:05:02;;;;;;;0.90;0.77;;;15.20;63.20;;;;;;5072362;28;20536;-49
2023/10/31 08:07:30;;;;;;;3.60;0.97;;;15.20;62.50;;;;;;5070152;28;20190;-50
2023/10/31 08:09:56;;;;;;;1.23;1.03;;;15.20;63.00;;;;;;5068956;28;20322;-49
2023/10/31 08:12:22;;;;;;;1.20;0.90;;;15.40;63.20;;;;;;5063110;28;20440;-49
2023/10/31 08:14:48;;;;;;;1.03;0.80;;;15.20;62.40;;;;;;5071932;28;20972;-51
2023/10/31 08:17:13;;;;;;;1.03;0.93;;;15.00;63.30;;;;;;5067615;28;20340;-48
2023/10/31 08:19:39;;;;;;;1.33;0.90;;;15.00;64.40;;;;;;5066882;28;21268;-49
2023/10/31 08:22:05;;;;;;;1.87;1.10;;;15.10;64.00;;;;;;5066442;28;20534;-48
2023/10/31 08:24:30;;;;;;;2.70;1.00;;;15.30;64.40;;;;;;5071198;28;20251;-49
2023/10/31 08:26:56;;;;;;;1.93;1.27;;;15.30;63.20;;;;;;5069044;28;20190;-48
2023/10/31 08:29:21;;;;;;;1.77;1.10;;;15.20;62.60;;;;;;5068980;28;20204;-51
2023/10/31 08:31:47;;;;;;;1.03;0.90;;;15.20;64.40;;;;;;5069700;28;20742;-46
2023/10/31 08:34:13;;;;;;;1.53;1.00;;;15.30;64.10;;;;;;5064805;28;20184;-49
2023/10/31 08:36:38;;;;;;;2.20;1.10;;;15.30;62.90;;;;;;5067471;28;20184;-50
2023/10/31 08:39:04;;;;;;;1.57;1.10;;;15.50;62.90;;;;;;5068421;28;20291;-48
2023/10/31 08:41:29;;;;;;;4.30;1.17;;;15.60;62.00;;;;;;5069178;28;20226;-50
2023/10/31 08:43:55;;;;;;;5.33;1.53;;;15.60;62.20;;;;;;5060435;28;21990;-50
2023/10/31 08:46:21;;;;;;;1.37;0.90;;;15.60;62.40;;;;;;5062212;28;20850;-50
2023/10/31 08:48:47;;;;;;;1.93;0.90;;;15.70;61.80;;;;;;5066812;28;20212;-49
2023/10/31 08:51:12;;;;;;;1.47;1.07;;;15.70;60.30;;;;;;5064401;28;20437;-50
2023/10/31 08:53:38;;;;;;;1.83;0.93;;;15.60;61.30;;;;;;5064528;28;20192;-48
2023/10/31 08:56:04;;;;;;;1.67;0.87;;;15.60;61.50;;;;;;5069412;28;20682;-50
2023/10/31 08:58:29;;;;;;;1.47;1.30;;;15.80;62.00;;;;;;5068345;28;20204;-49
2023/10/31 09:00:55;;;;;;;1.33;0.80;;;15.80;61.50;;;;;;5063173;28;20249;-50
2023/10/31 09:03:21;;;;;;;2.50;1.00;;;15.80;61.20;;;;;;5063805;28;20213;-52
2023/10/31 09:05:46;;;;;;;1.47;1.17;;;15.70;61.10;;;;;;5063733;28;20188;-51
2023/10/31 09:08:12;;;;;;;1.30;1.13;;;15.60;60.80;;;;;;5058492;28;20212;-53
2023/10/31 09:10:42;;;;;;;1.27;0.87;;;15.70;61.30;;;;;;5060291;28;20191;-51
2023/10/31 09:13:09;;;;;;;1.33;1.10;;;15.60;61.10;;;;;;5058273;28;20275;-51
2023/10/31 09:15:35;;;;;;;1.73;0.90;;;15.80;61.30;;;;;;5057150;28;20968;-52
2023/10/31 09:18:02;;;;;;;1.23;0.80;;;16.00;60.70;;;;;;5061156;28;20469;-47
2023/10/31 09:20:29;;;;;;;4.27;1.20;;;16.10;59.90;;;;;;5061196;28;20438;-51
2023/10/31 09:22:54;;;;;;;1.67;1.57;;;16.20;59.90;;;;;;5059104;28;20448;-49
2023/10/31 09:25:20;;;;;;;5.40;1.33;;;16.30;60.10;;;;;;5058492;28;20446;-50
2023/10/31 09:27:45;;;;;;;1.23;1.03;;;16.60;60.00;;;;;;5053346;28;20196;-52
2023/10/31 09:30:11;;;;;;;2.00;1.00;;;16.70;59.60;;;;;;5057634;28;20219;-49
2023/10/31 09:32:37;;;;;;;1.00;0.90;;;16.70;58.40;;;;;;5066067;28;20196;-52
2023/10/31 09:35:03;;;;;;;1.30;1.07;;;16.80;58.80;;;;;;5065164;28;20211;-49
2023/10/31 09:37:29;;;;;;;3.60;1.00;;;16.80;58.70;;;;;;5063806;28;20979;-52
2023/10/31 09:39:55;;;;;;;2.20;1.00;;;16.90;58.30;;;;;;5062772;28;20469;-50
2023/10/31 09:42:20;;;;;;;4.40;1.43;;;17.00;58.20;;;;;;5065999;28;20184;-49
2023/10/31 09:44:46;;;;;;;3.43;0.90;;;17.10;58.00;;;;;;5065150;28;20219;-53
2023/10/31 09:47:12;;;;;;;4.57;1.10;;;17.20;57.90;;;;;;5065087;28;20663;-50
2023/10/31 09:49:38;;;;;;;1.20;1.10;;;17.30;57.30;;;;;;5059459;28;20208;-50
2023/10/31 09:52:04;;;;;;;5.83;2.70;;;17.50;57.30;;;;;;5061282;28;20959;-48
2023/10/31 09:54:29;;;;;;;3.23;0.90;;;17.20;56.50;;;;;;5062561;28;20204;-53
2023/10/31 09:56:55;;;;;;;4.40;1.30;;;17.20;57.80;;;;;;5056793;28;20446;-51
2023/10/31 09:59:21;;;;;;;1.73;1.00;;;17.10;57.50;;;;;;5059236;28;20710;-50
2023/10/31 10:01:46;;;;;;;3.10;1.07;;;17.20;57.10;;;;;;5058164;28;20301;-52
2023/10/31 10:04:12;;;;;;;4.20;1.33;;;17.50;56.90;;;;;;5068034;28;20208;-50
2023/10/31 10:07:00;;;;;;;1.37;1.27;;;17.60;56.70;;;;;;5065800;28;20195;-51
2023/10/31 10:09:27;;;;;;;2.83;1.03;;;17.50;56.90;;;;;;5062799;28;20580;-47
2023/10/31 10:11:53;;;;;;;2.20;0.77;;;17.50;56.20;;;;;;5064397;28;20543;-50
2023/10/31 10:14:19;;;;;;;2.93;1.00;;;17.30;56.80;;;;;;5067098;28;20964;-53
2023/10/31 10:16:45;;;;;;;2.70;1.17;;;17.50;56.10;;;;;;5066103;28;20442;-52
2023/10/31 10:19:21;;;;;;;1.23;1.00;;;17.20;55.80;;;;;;5063338;28;20204;-50
2023/10/31 10:21:48;;;;;;;1.90;0.90;;;17.30;56.60;;;;;;5058191;28;20306;-50
2023/10/31 10:24:15;;;;;;;4.00;1.53;;;17.40;56.40;;;;;;5052859;28;20469;-50
2023/10/31 10:26:40;;;;;;;1.20;1.00;;;17.30;56.80;;;;;;5065241;28;20454;-49
2023/10/31 10:29:06;;;;;;;4.73;1.47;;;17.40;56.90;;;;;;5061793;28;20466;-48
2023/10/31 10:31:31;;;;;;;3.57;1.40;;;17.50;56.60;;;;;;5061482;28;20184;-49
2023/10/31 10:33:58;;;;;;;4.60;0.90;;;17.30;56.30;;;;;;5062689;28;20267;-50
2023/10/31 10:36:25;;;;;;;2.27;1.10;;;17.20;56.60;;;;;;5060955;28;20227;-50
2023/10/31 10:38:55;;;;;;;1.33;1.20;;;17.20;56.30;;;;;;5060575;28;20833;-50
2023/10/31 10:41:22;;;;;;;3.13;1.07;;;17.40;56.50;;;;;;5061356;28;20900;-50
2023/10/31 10:43:53;;;;;;;3.10;1.77;;;17.30;56.90;;;;;;5063306;28;20485;-49
2023/10/31 10:46:21;;;;;;;3.83;1.20;;;17.10;57.20;;;;;;5063561;28;20445;-51
2023/10/31 10:48:48;;;;;;;2.57;1.40;;;16.80;58.40;;;;;;5058234;28;20478;-52
2023/10/31 10:51:43;;;;;;;2.30;1.07;;;16.90;58.80;;;;;;5064204;28;20442;-50
2023/10/31 10:54:15;;;;;;;7.60;1.63;;;17.20;58.40;;;;;;5059871;28;20610;-50
2023/10/31 10:56:57;;;;;;;1.50;1.20;;;17.20;57.90;;;;;;5057760;28;20533;-49
2023/10/31 10:59:54;;;;;;;1.30;1.00;;;17.10;58.30;;;;;;5064812;28;20503;-50
2023/10/31 11:02:21;;;;;;;1.83;1.10;;;17.30;58.20;;;;;;5062976;28;20511;-49
2023/10/31 11:04:47;;;;;;;2.43;1.30;;;17.20;57.70;;;;;;5064182;28;20535;-52
2023/10/31 11:07:13;;;;;;;1.53;1.17;;;17.00;57.90;;;;;;5068364;28;20484;-50
2023/10/31 11:09:41;;;;;;;2.07;1.13;;;16.80;58.40;;;;;;5066055;28;20464;-49
2023/10/31 11:12:08;;;;;;;3.10;1.00;;;16.60;59.10;;;;;;5067755;28;20804;-50
2023/10/31 11:14:35;;;;;;;1.80;1.00;;;16.50;59.30;;;;;;5063393;28;20474;-51
2023/10/31 11:17:09;;;;;;;2.93;0.90;;;16.70;59.20;;;;;;5065677;28;20434;-51
2023/10/31 11:19:36;;;;;;;2.20;0.90;;;16.80;59.00;;;;;;5065010;28;20820;-51
2023/10/31 11:22:05;;;;;;;2.50;1.17;;;16.80;59.00;;;;;;5066921;28;20783;-49
2023/10/31 11:24:36;;;;;;;1.43;0.97;;;16.80;58.40;;;;;;5066741;28;20466;-51
2023/10/31 11:27:05;;;;;;;3.20;1.10;;;17.00;58.50;;;;;;5060709;28;20432;-51
2023/10/31 11:29:31;;;;;;;4.20;1.30;;;17.10;58.00;;;;;;5065626;28;20583;-49
2023/10/31 11:31:57;;;;;;;4.10;1.33;;;17.10;58.40;;;;;;5066895;28;20806;-49
2023/10/31 11:34:32;;;;;;;6.67;1.97;;;17.30;58.20;;;;;;5065722;28;20456;-50
2023/10/31 11:37:18;;;;;;;1.50;1.23;;;17.50;57.60;;;;;;5065508;28;20869;-48
2023/10/31 11:40:13;;;;;;;3.30;1.30;;;17.50;57.60;;;;;;5057875;28;20458;-52
2023/10/31 11:42:38;;;;;;;1.30;1.03;;;17.70;57.80;;;;;;5065126;28;20438;-51
2023/10/31 11:45:05;;;;;;;3.83;2.10;;;17.60;57.30;;;;;;5061236;28;20481;-48
2023/10/31 11:47:50;;;;;;;2.73;1.63;;;17.70;58.10;;;;;;5063221;28;20200;-51
2023/10/31 11:50:16;;;;;;;3.07;1.50;;;17.90;58.00;;;;;;5059978;28;20595;-49
2023/10/31 11:52:42;;;;;;;2.27;1.30;;;18.00;57.40;;;;;;5056660;28;20449;-54
2023/10/31 11:55:11;;;;;;;3.67;1.60;;;18.10;57.30;;;;;;5067693;28;20771;-52
2023/10/31 11:57:39;;;;;;;2.03;1.20;;;18.20;57.00;;;;;;5065566;28;20180;-49
2023/10/31 12:00:05;;;;;;;2.30;1.20;;;18.20;56.90;;;;;;5065812;28;20466;-50
2023/10/31 12:02:31;;;;;;;2.60;1.47;;;18.20;56.90;;;;;;5066541;28;20438;-52
2023/10/31 12:05:10;;;;;;;4.30;1.23;;;18.30;56.90;;;;;;5068038;28;21003;-48
2023/10/31 12:07:45;;;;;;;3.37;1.70;;;18.40;57.00;;;;;;5064915;28;20199;-50
2023/10/31 12:10:12;;;;;;;2.37;2.00;;;18.20;57.40;;;;;;5061195;28;20549;-52
2023/10/31 12:12:38;;;;;;;3.60;2.73;;;18.20;58.10;;;;;;5067216;28;20434;-53
2023/10/31 12:15:08;;;;;;;7.43;2.10;;;18.20;57.60;;;;;;5066867;28;20484;-48
2023/10/31 12:17:36;;;;;;;1.83;1.63;;;18.30;57.50;;;;;;5064294;28;20192;-52
2023/10/31 12:20:07;;;;;;;3.60;1.70;;;18.40;57.30;;;;;;5062123;28;20485;-55
2023/10/31 12:22:33;;;;;;;2.10;1.60;;;18.20;57.30;;;;;;5062796;28;20473;-51
2023/10/31 12:25:06;;;;;;;6.67;2.30;;;18.30;57.50;;;;;;5067093;28;20909;-52
2023/10/31 12:27:50;;;;;;;4.20;1.83;;;18.30;57.50;;;;;;5065203;28;20537;-50
2023/10/31 12:30:21;;;;;;;5.30;2.07;;;18.10;57.60;;;;;;5065192;28;20441;-51
2023/10/31 12:32:57;;;;;;;2.10;1.37;;;18.20;57.80;;;;;;5068607;28;20425;-50
2023/10/31 12:35:25;;;;;;;3.23;1.37;;;18.30;57.80;;;;;;5068845;28;20441;-47
2023/10/31 12:37:52;;;;;;;2.43;1.57;;;18.30;57.70;;;;;;5068956;28;20520;-51
2023/10/31 12:40:19;;;;;;;2.30;1.40;;;18.40;57.70;;;;;;5068840;28;20500;-48
2023/10/31 12:42:46;;;;;;;4.73;1.80;;;18.50;57.70;;;;;;5069186;28;20430;-51
2023/10/31 12:45:12;;;;;;;3.53;1.53;;;18.50;57.60;;;;;;5070154;28;20473;-51